Time;durP1;ratioP1;P1;durP2;ratioP2;P2;SDS_P1;SDS_P2;PMS_P1;PMS_P2;Temp;Humidity;BMP_temperature;BMP_pressure;BME280_temperature;BME280_humidity;BME280_pressure;Samples;Min_cycle;Max_cycle;Signal;HPM_P1;HPM_P2
2023/05/15 00:00:48;;;;;;;0.30;0.30;;;;;;;;;;7404968;19;20137;-94
2023/05/15 00:03:16;;;;;;;0.40;0.40;;;;;;;;;;7403671;19;20145;-93
2023/05/15 00:05:43;;;;;;;0.30;0.30;;;;;;;;;;7403260;19;20142;-94
2023/05/15 00:08:09;;;;;;;0.30;0.30;;;;;;;;;;7401774;19;20157;-94
2023/05/15 00:10:36;;;;;;;0.50;0.50;;;;;;;;;;7399923;19;20158;-94
2023/05/15 00:13:06;;;;;;;0.83;0.83;;;;;;;;;;7403227;19;20605;-94
2023/05/15 00:15:32;;;;;;;0.47;0.47;;;;;;;;;;7404268;19;20149;-94
2023/05/15 00:17:59;;;;;;;0.40;0.40;;;;;;;;;;7403381;19;20529;-95
2023/05/15 00:20:26;;;;;;;0.30;0.30;;;;;;;;;;7402851;19;20156;-95
2023/05/15 00:22:53;;;;;;;0.30;0.30;;;;;;;;;;7397191;19;20164;-94
2023/05/15 00:25:19;;;;;;;0.30;0.30;;;;;;;;;;7401562;19;20125;-94
2023/05/15 00:27:46;;;;;;;0.30;0.30;;;;;;;;;;7400626;19;20502;-95
2023/05/15 00:30:13;;;;;;;0.20;0.20;;;;;;;;;;7400082;19;20145;-94
2023/05/15 00:32:40;;;;;;;0.30;0.30;;;;;;;;;;7406863;19;20877;-94
2023/05/15 00:35:06;;;;;;;0.47;0.47;;;;;;;;;;7406516;19;20133;-93
2023/05/15 00:37:33;;;;;;;0.30;0.30;;;;;;;;;;7402997;19;20167;-95
2023/05/15 00:40:00;;;;;;;0.60;0.60;;;;;;;;;;7408224;19;20141;-94
2023/05/15 00:42:26;;;;;;;0.30;0.30;;;;;;;;;;7403360;19;20137;-94
2023/05/15 00:44:55;;;;;;;0.40;0.40;;;;;;;;;;7405539;19;20161;-94
2023/05/15 00:47:22;;;;;;;0.40;0.40;;;;;;;;;;7399726;19;20613;-93
2023/05/15 00:49:50;;;;;;;0.30;0.30;;;;;;;;;;7401749;19;20145;-94
2023/05/15 00:52:16;;;;;;;0.50;0.50;;;;;;;;;;7400178;19;20637;-93
2023/05/15 00:54:43;;;;;;;0.40;0.40;;;;;;;;;;7396895;19;20133;-94
2023/05/15 00:57:10;;;;;;;0.37;0.37;;;;;;;;;;7399247;19;20149;-94
2023/05/15 00:59:38;;;;;;;0.30;0.30;;;;;;;;;;7399235;19;20164;-94
2023/05/15 01:02:07;;;;;;;0.57;0.57;;;;;;;;;;7402740;19;20145;-94
2023/05/15 01:04:34;;;;;;;0.27;0.27;;;;;;;;;;7413614;19;20133;-94
2023/05/15 01:07:01;;;;;;;0.30;0.30;;;;;;;;;;7405768;19;20153;-94
2023/05/15 01:09:29;;;;;;;0.30;0.30;;;;;;;;;;7408841;19;20145;-94
2023/05/15 01:11:56;;;;;;;0.30;0.30;;;;;;;;;;7407098;19;20157;-93
2023/05/15 01:14:23;;;;;;;0.30;0.30;;;;;;;;;;7398534;19;20169;-93
2023/05/15 01:16:50;;;;;;;0.30;0.30;;;;;;;;;;7398719;19;20157;-94
2023/05/15 01:19:16;;;;;;;0.60;0.60;;;;;;;;;;7401383;19;20151;-95
2023/05/15 01:22:01;;;;;;;0.20;0.20;;;;;;;;;;7397086;19;20137;-94
2023/05/15 01:24:47;;;;;;;2.67;0.63;;;;;;;;;;7402892;19;20503;-95
2023/05/15 01:27:52;;;;;;;0.30;0.30;;;;;;;;;;7407968;19;20605;-94
2023/05/15 01:30:34;;;;;;;0.67;0.67;;;;;;;;;;7411966;19;20121;-95
2023/05/15 01:33:48;;;;;;;0.40;0.40;;;;;;;;;;7403563;19;20144;-94
2023/05/15 01:36:32;;;;;;;0.40;0.40;;;;;;;;;;7394212;19;20533;-94
2023/05/15 01:39:02;;;;;;;0.20;0.20;;;;;;;;;;7397483;19;20148;-93
2023/05/15 01:41:45;;;;;;;0.40;0.40;;;;;;;;;;7392882;19;20510;-94
2023/05/15 01:44:21;;;;;;;0.30;0.30;;;;;;;;;;7399286;19;20125;-94
2023/05/15 01:46:55;;;;;;;0.30;0.30;;;;;;;;;;7394843;19;20613;-94
2023/05/15 01:49:25;;;;;;;0.47;0.47;;;;;;;;;;7399819;19;20180;-94
2023/05/15 01:51:56;;;;;;;0.30;0.30;;;;;;;;;;7398570;19;20136;-93
2023/05/15 01:54:23;;;;;;;0.30;0.30;;;;;;;;;;7397342;19;20140;-93
2023/05/15 01:56:50;;;;;;;0.30;0.30;;;;;;;;;;7394155;19;20149;-94
2023/05/15 01:59:18;;;;;;;0.60;0.40;;;;;;;;;;7398112;19;20602;-94
2023/05/15 02:01:45;;;;;;;0.30;0.30;;;;;;;;;;7399491;19;20162;-94
2023/05/15 02:04:13;;;;;;;0.30;0.30;;;;;;;;;;7399109;19;20136;-94
2023/05/15 02:06:40;;;;;;;0.30;0.30;;;;;;;;;;7395968;19;20491;-94
2023/05/15 02:09:06;;;;;;;0.50;0.50;;;;;;;;;;7397899;19;20137;-93
2023/05/15 02:11:33;;;;;;;0.30;0.30;;;;;;;;;;7402212;19;20136;-94
2023/05/15 02:14:00;;;;;;;0.67;0.67;;;;;;;;;;7402304;19;20137;-93
2023/05/15 02:16:27;;;;;;;0.77;0.77;;;;;;;;;;7406217;19;20141;-93
2023/05/15 02:18:54;;;;;;;0.30;0.30;;;;;;;;;;7397841;19;20229;-93
2023/05/15 02:21:20;;;;;;;0.40;0.40;;;;;;;;;;7398466;19;20568;-93
2023/05/15 02:23:47;;;;;;;0.40;0.40;;;;;;;;;;7397731;19;20141;-94
2023/05/15 02:26:30;;;;;;;0.30;0.30;;;;;;;;;;7396267;19;20140;-95
2023/05/15 02:29:05;;;;;;;0.77;0.77;;;;;;;;;;7396778;19;20133;-93
2023/05/15 02:31:53;;;;;;;0.30;0.30;;;;;;;;;;7397318;19;20137;-93
2023/05/15 02:34:39;;;;;;;0.50;0.50;;;;;;;;;;7396193;19;20208;-94
2023/05/15 02:37:09;;;;;;;0.30;0.30;;;;;;;;;;7395406;19;20164;-93
2023/05/15 02:39:37;;;;;;;0.33;0.33;;;;;;;;;;7395919;19;20125;-93
2023/05/15 02:42:05;;;;;;;0.60;0.60;;;;;;;;;;7396582;19;20134;-94
2023/05/15 02:44:34;;;;;;;0.30;0.30;;;;;;;;;;7401424;19;20480;-95
2023/05/15 02:47:02;;;;;;;0.30;0.30;;;;;;;;;;7399458;19;20153;-94
2023/05/15 02:49:29;;;;;;;0.30;0.30;;;;;;;;;;7397466;19;20161;-93
2023/05/15 02:51:56;;;;;;;0.30;0.30;;;;;;;;;;7395926;19;20593;-94
2023/05/15 02:54:22;;;;;;;0.40;0.40;;;;;;;;;;7398649;19;20178;-94
2023/05/15 02:56:50;;;;;;;0.20;0.20;;;;;;;;;;7403345;19;20149;-93
2023/05/15 02:59:18;;;;;;;0.30;0.30;;;;;;;;;;7415252;19;20157;-94
2023/05/15 03:01:45;;;;;;;0.30;0.30;;;;;;;;;;7405801;19;20144;-93
2023/05/15 03:04:13;;;;;;;1.13;0.70;;;;;;;;;;7403474;19;20166;-93
2023/05/15 03:06:40;;;;;;;0.30;0.30;;;;;;;;;;7402695;19;20141;-94
2023/05/15 03:09:07;;;;;;;0.30;0.30;;;;;;;;;;7400145;19;20158;-94
2023/05/15 03:11:33;;;;;;;1.00;0.90;;;;;;;;;;7397137;19;20153;-93
2023/05/15 03:14:00;;;;;;;0.30;0.30;;;;;;;;;;7398416;19;20141;-93
2023/05/15 03:16:27;;;;;;;0.43;0.43;;;;;;;;;;7406952;19;20133;-94
2023/05/15 03:18:54;;;;;;;1.03;1.03;;;;;;;;;;7407731;19;20149;-94
2023/05/15 03:21:20;;;;;;;0.23;0.23;;;;;;;;;;7420693;19;20132;-94
2023/05/15 03:23:47;;;;;;;0.60;0.60;;;;;;;;;;7424944;19;20133;-94
2023/05/15 03:26:14;;;;;;;0.40;0.40;;;;;;;;;;7423090;19;20172;-94
2023/05/15 03:28:41;;;;;;;0.40;0.40;;;;;;;;;;7413579;19;20180;-93
2023/05/15 03:31:08;;;;;;;0.33;0.33;;;;;;;;;;7406767;19;20144;-94
2023/05/15 03:33:35;;;;;;;0.33;0.33;;;;;;;;;;7416129;19;20141;-94
2023/05/15 03:36:01;;;;;;;0.30;0.30;;;;;;;;;;7408394;19;20148;-95
2023/05/15 03:38:28;;;;;;;0.30;0.30;;;;;;;;;;7409756;19;20153;-95
2023/05/15 03:40:55;;;;;;;0.30;0.30;;;;;;;;;;7413602;19;20133;-95
2023/05/15 03:43:22;;;;;;;0.27;0.27;;;;;;;;;;7411791;19;20169;-94
2023/05/15 03:45:48;;;;;;;0.30;0.30;;;;;;;;;;7416075;19;20164;-94
2023/05/15 03:48:15;;;;;;;0.20;0.20;;;;;;;;;;7415347;19;20188;-95
2023/05/15 03:50:43;;;;;;;0.50;0.50;;;;;;;;;;7414874;19;20141;-94
2023/05/15 03:53:09;;;;;;;0.63;0.63;;;;;;;;;;7413286;19;20526;-95
2023/05/15 03:55:36;;;;;;;0.30;0.30;;;;;;;;;;7416026;19;20137;-95
2023/05/15 03:58:03;;;;;;;0.40;0.40;;;;;;;;;;7417695;19;20148;-95
2023/05/15 04:00:29;;;;;;;0.30;0.30;;;;;;;;;;7418161;19;20125;-94
2023/05/15 04:02:56;;;;;;;0.47;0.47;;;;;;;;;;7420487;19;20617;-96
2023/05/15 04:05:23;;;;;;;0.60;0.60;;;;;;;;;;7413079;19;20143;-94
2023/05/15 04:07:50;;;;;;;0.30;0.30;;;;;;;;;;7412372;19;20204;-94
2023/05/15 04:10:16;;;;;;;0.30;0.30;;;;;;;;;;7413917;19;20133;-95
2023/05/15 04:12:43;;;;;;;0.30;0.30;;;;;;;;;;7411098;19;20144;-95
2023/05/15 04:15:18;;;;;;;0.60;0.60;;;;;;;;;;7411679;19;20141;-95
2023/05/15 04:17:46;;;;;;;0.50;0.40;;;;;;;;;;7415188;19;20157;-95
2023/05/15 04:20:15;;;;;;;0.27;0.27;;;;;;;;;;7416762;19;20609;-93
2023/05/15 04:22:42;;;;;;;0.30;0.30;;;;;;;;;;7414325;19;20149;-94
2023/05/15 04:25:10;;;;;;;0.30;0.30;;;;;;;;;;7409978;19;20153;-94
2023/05/15 04:27:37;;;;;;;0.63;0.53;;;;;;;;;;7408931;19;20165;-94
2023/05/15 04:30:05;;;;;;;0.20;0.20;;;;;;;;;;7407296;19;20161;-93
2023/05/15 04:32:32;;;;;;;0.30;0.30;;;;;;;;;;7402180;19;20161;-95
2023/05/15 04:35:00;;;;;;;0.50;0.50;;;;;;;;;;7403099;19;20149;-95
2023/05/15 04:37:27;;;;;;;0.20;0.20;;;;;;;;;;7401042;19;20141;-94
2023/05/15 04:39:54;;;;;;;1.43;1.33;;;;;;;;;;7396191;19;20144;-94
2023/05/15 04:42:21;;;;;;;0.60;0.60;;;;;;;;;;7396798;19;20157;-93
2023/05/15 04:44:47;;;;;;;0.60;0.60;;;;;;;;;;7396127;19;20644;-94
2023/05/15 04:47:14;;;;;;;0.40;0.40;;;;;;;;;;7395988;19;20160;-95
2023/05/15 04:49:41;;;;;;;0.40;0.40;;;;;;;;;;7398918;19;20129;-94
2023/05/15 04:52:08;;;;;;;0.63;0.63;;;;;;;;;;7395922;19;20137;-94
2023/05/15 04:54:35;;;;;;;0.30;0.30;;;;;;;;;;7397329;19;20601;-93
2023/05/15 04:57:01;;;;;;;0.50;0.50;;;;;;;;;;7396404;19;20168;-94
2023/05/15 04:59:28;;;;;;;0.40;0.40;;;;;;;;;;7396431;19;20141;-94
2023/05/15 05:01:55;;;;;;;0.30;0.30;;;;;;;;;;7398141;19;20137;-94
2023/05/15 05:04:22;;;;;;;0.47;0.47;;;;;;;;;;7399645;19;20148;-94
2023/05/15 05:06:49;;;;;;;0.30;0.30;;;;;;;;;;7397384;19;20180;-93
2023/05/15 05:09:17;;;;;;;0.53;0.53;;;;;;;;;;7400511;19;20133;-95
2023/05/15 05:11:44;;;;;;;0.70;0.70;;;;;;;;;;7401184;19;20129;-94
2023/05/15 05:14:13;;;;;;;0.30;0.30;;;;;;;;;;7397192;19;20144;-93
2023/05/15 05:16:40;;;;;;;0.30;0.30;;;;;;;;;;7401695;19;20254;-94
2023/05/15 05:19:07;;;;;;;0.80;0.80;;;;;;;;;;7406817;19;20152;-95
2023/05/15 05:21:33;;;;;;;0.70;0.70;;;;;;;;;;7399780;19;20145;-93
2023/05/15 05:24:00;;;;;;;0.50;0.50;;;;;;;;;;7397746;19;20137;-93
2023/05/15 05:26:26;;;;;;;0.43;0.43;;;;;;;;;;7395547;19;20169;-94
2023/05/15 05:28:53;;;;;;;0.50;0.50;;;;;;;;;;7396177;19;20140;-93
2023/05/15 05:31:20;;;;;;;0.40;0.40;;;;;;;;;;7396162;19;20157;-93
2023/05/15 05:33:51;;;;;;;0.93;0.93;;;;;;;;;;7399175;19;20157;-93
2023/05/15 05:36:18;;;;;;;0.40;0.40;;;;;;;;;;7400697;19;20147;-94
2023/05/15 05:38:45;;;;;;;0.37;0.37;;;;;;;;;;7401381;19;20197;-94
2023/05/15 05:41:11;;;;;;;0.53;0.53;;;;;;;;;;7397863;19;20144;-95
2023/05/15 05:43:38;;;;;;;0.47;0.47;;;;;;;;;;7401510;19;20149;-94
2023/05/15 05:46:07;;;;;;;0.50;0.50;;;;;;;;;;7409661;19;20637;-93
2023/05/15 05:48:34;;;;;;;0.30;0.30;;;;;;;;;;7409204;19;20192;-94
2023/05/15 05:51:01;;;;;;;3.93;0.70;;;;;;;;;;7409363;19;20149;-94
2023/05/15 05:53:27;;;;;;;0.40;0.40;;;;;;;;;;7421823;19;20160;-95
2023/05/15 05:55:54;;;;;;;0.83;0.73;;;;;;;;;;7411678;19;20153;-95
2023/05/15 05:58:21;;;;;;;0.30;0.30;;;;;;;;;;7400395;19;20204;-94
2023/05/15 06:00:52;;;;;;;0.40;0.40;;;;;;;;;;7402494;19;20137;-94
2023/05/15 06:03:19;;;;;;;0.40;0.40;;;;;;;;;;7408822;19;20145;-95
2023/05/15 06:05:47;;;;;;;0.40;0.40;;;;;;;;;;7409861;19;20629;-93
2023/05/15 06:08:14;;;;;;;0.37;0.37;;;;;;;;;;7411374;19;20175;-95
2023/05/15 06:10:41;;;;;;;0.47;0.47;;;;;;;;;;7414030;19;20133;-96
2023/05/15 06:13:07;;;;;;;0.40;0.40;;;;;;;;;;7412982;19;20137;-95
2023/05/15 06:15:34;;;;;;;0.53;0.53;;;;;;;;;;7410899;19;20141;-95
2023/05/15 06:18:01;;;;;;;0.40;0.40;;;;;;;;;;7407758;19;20173;-94
2023/05/15 06:20:27;;;;;;;0.33;0.33;;;;;;;;;;7406470;19;20141;-94
2023/05/15 06:22:54;;;;;;;0.30;0.30;;;;;;;;;;7410377;19;20141;-95
2023/05/15 06:25:21;;;;;;;0.33;0.33;;;;;;;;;;7418062;19;20137;-95
2023/05/15 06:27:48;;;;;;;0.77;0.77;;;;;;;;;;7415336;19;20161;-96
2023/05/15 06:30:15;;;;;;;1.00;1.00;;;;;;;;;;7420658;19;20140;-95
2023/05/15 06:32:41;;;;;;;0.45;0.45;;;;;;;;;;7394028;19;20153;-93
2023/05/15 06:35:09;;;;;;;0.30;0.30;;;;;;;;;;7405184;19;20602;-94
2023/05/15 06:37:36;;;;;;;0.47;0.47;;;;;;;;;;7405891;19;20156;-93
2023/05/15 06:40:04;;;;;;;0.40;0.40;;;;;;;;;;7409893;19;20141;-94
2023/05/15 06:42:31;;;;;;;0.43;0.43;;;;;;;;;;7398835;19;20137;-96
2023/05/15 06:44:58;;;;;;;1.15;0.65;;;;;;;;;;7419003;19;20129;-96
2023/05/15 06:47:25;;;;;;;0.40;0.40;;;;;;;;;;7423246;19;20160;-96
2023/05/15 06:49:53;;;;;;;1.83;0.50;;;;;;;;;;7422286;19;20140;-96
2023/05/15 06:52:19;;;;;;;0.30;0.30;;;;;;;;;;7421369;19;20239;-95
2023/05/15 06:54:47;;;;;;;0.30;0.30;;;;;;;;;;7422954;19;20160;-96
2023/05/15 06:57:14;;;;;;;0.43;0.43;;;;;;;;;;7414874;19;20177;-94
2023/05/15 06:59:41;;;;;;;0.50;0.50;;;;;;;;;;7417400;19;20153;-94
2023/05/15 07:02:07;;;;;;;0.63;0.63;;;;;;;;;;7411532;19;20566;-95
2023/05/15 07:04:34;;;;;;;1.27;0.70;;;;;;;;;;7404047;19;20133;-95
2023/05/15 07:07:01;;;;;;;0.40;0.40;;;;;;;;;;7400151;19;20510;-95
2023/05/15 07:09:27;;;;;;;0.30;0.30;;;;;;;;;;7398463;19;20141;-95
2023/05/15 07:11:54;;;;;;;0.33;0.33;;;;;;;;;;7402295;19;20140;-93
2023/05/15 07:14:21;;;;;;;0.40;0.40;;;;;;;;;;7397850;19;20133;-95
2023/05/15 07:16:47;;;;;;;0.50;0.50;;;;;;;;;;7398131;19;20185;-95
2023/05/15 07:19:19;;;;;;;0.30;0.30;;;;;;;;;;7394062;19;20137;-93
2023/05/15 07:21:46;;;;;;;0.40;0.40;;;;;;;;;;7396912;19;20151;-93
2023/05/15 07:24:13;;;;;;;0.30;0.30;;;;;;;;;;7395281;19;20523;-93
2023/05/15 07:26:40;;;;;;;0.53;0.53;;;;;;;;;;7393780;19;20141;-92
2023/05/15 07:29:22;;;;;;;0.53;0.53;;;;;;;;;;7402568;19;20147;-93
2023/05/15 07:31:49;;;;;;;0.40;0.40;;;;;;;;;;7403523;19;20141;-94
2023/05/15 07:34:15;;;;;;;0.30;0.30;;;;;;;;;;7421610;19;20165;-94
2023/05/15 07:36:42;;;;;;;0.55;0.55;;;;;;;;;;7412401;19;20141;-95
2023/05/15 07:39:09;;;;;;;0.30;0.30;;;;;;;;;;7408979;19;20145;-93
2023/05/15 07:41:36;;;;;;;39.53;22.87;;;;;;;;;;7412581;19;20133;-94
2023/05/15 07:44:02;;;;;;;16.03;10.90;;;;;;;;;;7415003;19;20137;-96
2023/05/15 07:46:29;;;;;;;5.43;4.97;;;;;;;;;;7405519;19;20136;-94
2023/05/15 07:48:56;;;;;;;7.50;3.97;;;;;;;;;;7396725;19;20141;-94
2023/05/15 07:51:23;;;;;;;1.30;1.30;;;;;;;;;;7391563;19;20141;-95
2023/05/15 07:53:49;;;;;;;2.27;2.07;;;;;;;;;;7389855;19;20169;-94
2023/05/15 07:56:16;;;;;;;3.53;2.20;;;;;;;;;;7389954;19;20159;-96
2023/05/15 07:58:43;;;;;;;1.70;1.60;;;;;;;;;;7390194;19;20161;-95
2023/05/15 08:01:10;;;;;;;1.17;1.07;;;;;;;;;;7392147;19;20165;-95
2023/05/15 08:03:36;;;;;;;1.10;1.10;;;;;;;;;;7396485;19;20154;-92
2023/05/15 08:06:03;;;;;;;0.70;0.57;;;;;;;;;;7400203;19;20137;-92
2023/05/15 08:08:30;;;;;;;0.43;0.43;;;;;;;;;;7400175;19;20193;-95
2023/05/15 08:10:57;;;;;;;0.33;0.33;;;;;;;;;;7399235;19;20156;-92
2023/05/15 08:13:23;;;;;;;0.40;0.40;;;;;;;;;;7399749;19;20161;-94
2023/05/15 08:15:50;;;;;;;0.60;0.60;;;;;;;;;;7403420;19;20137;-95
2023/05/15 08:18:17;;;;;;;0.73;0.73;;;;;;;;;;7395678;19;20161;-93
2023/05/15 08:20:43;;;;;;;0.30;0.30;;;;;;;;;;7398259;19;20157;-95
2023/05/15 08:23:10;;;;;;;0.93;0.80;;;;;;;;;;7395299;19;20146;-93
2023/05/15 08:25:39;;;;;;;0.70;0.70;;;;;;;;;;7397578;19;20141;-95
2023/05/15 08:28:05;;;;;;;0.83;0.83;;;;;;;;;;7398001;19;20178;-94
2023/05/15 08:30:32;;;;;;;0.60;0.60;;;;;;;;;;7401380;19;20160;-92
2023/05/15 08:32:59;;;;;;;1.77;1.67;;;;;;;;;;7403875;19;20137;-94
2023/05/15 08:35:26;;;;;;;0.73;0.73;;;;;;;;;;7394952;19;20144;-93
2023/05/15 08:37:53;;;;;;;0.40;0.40;;;;;;;;;;7395613;19;20185;-94
2023/05/15 08:40:20;;;;;;;2.22;1.15;;;;;;;;;;7399067;19;20661;-92
2023/05/15 08:43:13;;;;;;;0.40;0.40;;;;;;;;;;7402377;19;20155;-94
2023/05/15 08:45:40;;;;;;;0.40;0.40;;;;;;;;;;7399440;19;20140;-94
2023/05/15 08:48:13;;;;;;;0.45;0.45;;;;;;;;;;7398243;19;20180;-96
2023/05/15 08:50:40;;;;;;;0.30;0.30;;;;;;;;;;7400247;19;20621;-92
2023/05/15 08:53:07;;;;;;;0.40;0.40;;;;;;;;;;7398052;19;20147;-92
2023/05/15 08:55:34;;;;;;;0.45;0.45;;;;;;;;;;7398161;19;20141;-92
2023/05/15 08:58:01;;;;;;;0.30;0.30;;;;;;;;;;7398018;19;20159;-92
2023/05/15 09:00:27;;;;;;;0.30;0.30;;;;;;;;;;7394020;19;20148;-92
2023/05/15 09:02:58;;;;;;;0.52;0.52;;;;;;;;;;7400655;19;20133;-86
2023/05/15 09:05:26;;;;;;;0.52;0.52;;;;;;;;;;7397589;19;20135;-87
2023/05/15 09:07:53;;;;;;;0.52;0.52;;;;;;;;;;7400097;19;20172;-87
2023/05/15 09:10:21;;;;;;;0.30;0.30;;;;;;;;;;7403745;19;20201;-86
2023/05/15 09:12:49;;;;;;;0.35;0.35;;;;;;;;;;7408727;19;20140;-85
2023/05/15 09:15:20;;;;;;;0.65;0.65;;;;;;;;;;7402379;19;20141;-87
2023/05/15 09:17:47;;;;;;;0.50;0.50;;;;;;;;;;7395197;19;20177;-87
2023/05/15 09:20:33;;;;;;;0.30;0.30;;;;;;;;;;7396366;19;20497;-85
2023/05/15 09:23:02;;;;;;;0.80;0.77;;;;;;;;;;7401005;19;20157;-85
2023/05/15 09:25:33;;;;;;;0.65;0.65;;;;;;;;;;7401392;19;20148;-85
2023/05/15 09:28:00;;;;;;;0.90;0.65;;;;;;;;;;7394978;19;20190;-86
2023/05/15 09:30:26;;;;;;;0.40;0.40;;;;;;;;;;7398147;19;20133;-86
2023/05/15 09:32:55;;;;;;;0.30;0.30;;;;;;;;;;7394948;19;20434;-87
2023/05/15 09:35:35;;;;;;;0.40;0.40;;;;;;;;;;7396906;19;20249;-87
2023/05/15 09:38:06;;;;;;;0.30;0.30;;;;;;;;;;7392247;19;20152;-92
2023/05/15 09:40:33;;;;;;;0.70;0.70;;;;;;;;;;7400799;19;20164;-93
2023/05/15 09:43:00;;;;;;;0.50;0.50;;;;;;;;;;7400134;19;20509;-94
2023/05/15 09:45:28;;;;;;;0.73;0.73;;;;;;;;;;7398606;19;20161;-94
2023/05/15 09:47:58;;;;;;;0.60;0.60;;;;;;;;;;7390540;19;20145;-93
2023/05/15 09:50:33;;;;;;;0.50;0.50;;;;;;;;;;7395423;19;20556;-91
2023/05/15 09:52:59;;;;;;;0.40;0.40;;;;;;;;;;7392906;19;20131;-93
2023/05/15 09:55:26;;;;;;;0.40;0.40;;;;;;;;;;7396510;19;20431;-91
2023/05/15 09:58:12;;;;;;;0.32;0.32;;;;;;;;;;7393768;19;20538;-92
2023/05/15 10:00:40;;;;;;;0.30;0.30;;;;;;;;;;7396176;19;20141;-92
2023/05/15 10:03:15;;;;;;;0.20;0.20;;;;;;;;;;7396593;19;20128;-92
2023/05/15 10:05:42;;;;;;;0.40;0.40;;;;;;;;;;7397331;19;20140;-91
2023/05/15 10:08:10;;;;;;;0.75;0.75;;;;;;;;;;7392599;19;20161;-91
2023/05/15 10:10:36;;;;;;;0.50;0.50;;;;;;;;;;7394285;19;20185;-90
2023/05/15 10:13:04;;;;;;;0.50;0.50;;;;;;;;;;7396108;19;20150;-90
2023/05/15 10:15:31;;;;;;;0.30;0.30;;;;;;;;;;7393751;19;20204;-90
2023/05/15 10:17:59;;;;;;;0.30;0.30;;;;;;;;;;7393766;19;20153;-90
2023/05/15 10:20:26;;;;;;;0.28;0.28;;;;;;;;;;7395899;19;20137;-90
2023/05/15 10:22:54;;;;;;;0.30;0.30;;;;;;;;;;7397754;19;20740;-90
2023/05/15 10:25:33;;;;;;;0.30;0.30;;;;;;;;;;7393416;19;20165;-91
2023/05/15 10:28:00;;;;;;;0.40;0.40;;;;;;;;;;7394420;19;20152;-91
2023/05/15 10:30:27;;;;;;;0.50;0.50;;;;;;;;;;7400734;19;20155;-91
2023/05/15 10:32:55;;;;;;;0.30;0.30;;;;;;;;;;7407050;19;20152;-90
2023/05/15 10:35:22;;;;;;;0.30;0.30;;;;;;;;;;7396605;19;20217;-91
2023/05/15 10:37:49;;;;;;;0.30;0.30;;;;;;;;;;7399057;19;20203;-92
2023/05/15 10:40:16;;;;;;;0.50;0.50;;;;;;;;;;7404337;19;20136;-92
2023/05/15 10:42:45;;;;;;;0.40;0.40;;;;;;;;;;7404765;19;20228;-91
2023/05/15 10:45:12;;;;;;;0.40;0.40;;;;;;;;;;7405401;19;20719;-90
2023/05/15 10:47:41;;;;;;;0.57;0.57;;;;;;;;;;7405486;19;20160;-89
2023/05/15 10:50:08;;;;;;;0.30;0.30;;;;;;;;;;7405484;19;20142;-91
2023/05/15 10:52:35;;;;;;;0.30;0.30;;;;;;;;;;7408664;19;20169;-91
2023/05/15 10:55:06;;;;;;;0.57;0.57;;;;;;;;;;7406210;19;20136;-91
2023/05/15 10:57:33;;;;;;;0.43;0.43;;;;;;;;;;7402922;19;20581;-92
2023/05/15 11:00:04;;;;;;;0.68;0.68;;;;;;;;;;7403157;19;20497;-92
2023/05/15 11:02:41;;;;;;;0.30;0.30;;;;;;;;;;7403834;19;20139;-92
2023/05/15 11:05:10;;;;;;;0.50;0.50;;;;;;;;;;7403353;19;20173;-91
2023/05/15 11:07:37;;;;;;;0.40;0.40;;;;;;;;;;7405017;19;20164;-91
2023/05/15 11:10:26;;;;;;;0.45;0.45;;;;;;;;;;7403175;19;20137;-90
2023/05/15 11:13:01;;;;;;;1.48;0.77;;;;;;;;;;7402958;19;20155;-92
2023/05/15 11:16:00;;;;;;;0.43;0.43;;;;;;;;;;7403330;19;20144;-92
2023/05/15 11:18:27;;;;;;;0.47;0.47;;;;;;;;;;7400112;19;20220;-90
2023/05/15 11:21:18;;;;;;;0.60;0.60;;;;;;;;;;7401113;19;20597;-91
2023/05/15 11:24:02;;;;;;;0.40;0.40;;;;;;;;;;7406374;19;20140;-90
2023/05/15 11:26:52;;;;;;;0.40;0.40;;;;;;;;;;7405183;19;20141;-90
2023/05/15 11:29:34;;;;;;;0.45;0.45;;;;;;;;;;7404546;19;20160;-90
2023/05/15 11:32:00;;;;;;;0.32;0.32;;;;;;;;;;7403682;19;20137;-91
2023/05/15 11:34:34;;;;;;;0.65;0.60;;;;;;;;;;7408042;19;20139;-90
2023/05/15 11:37:01;;;;;;;0.40;0.40;;;;;;;;;;7407229;19;20187;-91
2023/05/15 11:39:27;;;;;;;0.30;0.30;;;;;;;;;;7411465;19;20705;-91
2023/05/15 11:41:55;;;;;;;0.65;0.65;;;;;;;;;;7414558;19;20161;-91
2023/05/15 11:44:23;;;;;;;0.60;0.60;;;;;;;;;;7424511;19;20185;-90
2023/05/15 11:46:50;;;;;;;0.30;0.30;;;;;;;;;;7421482;19;20176;-90
2023/05/15 11:49:21;;;;;;;0.57;0.57;;;;;;;;;;7412772;19;20520;-90
2023/05/15 11:51:49;;;;;;;0.30;0.30;;;;;;;;;;7410497;19;20133;-91
2023/05/15 11:54:17;;;;;;;0.40;0.40;;;;;;;;;;7408732;19;20137;-91
2023/05/15 11:56:46;;;;;;;0.40;0.40;;;;;;;;;;7409805;19;20137;-91
2023/05/15 11:59:13;;;;;;;0.30;0.30;;;;;;;;;;7409767;19;20141;-92
2023/05/15 12:01:41;;;;;;;0.63;0.63;;;;;;;;;;7408578;19;20177;-90
2023/05/15 12:04:13;;;;;;;0.47;0.47;;;;;;;;;;7411693;19;20503;-92
2023/05/15 12:06:41;;;;;;;0.40;0.40;;;;;;;;;;7405709;19;20578;-90
2023/05/15 12:09:14;;;;;;;0.63;0.63;;;;;;;;;;7406911;19;20151;-90
2023/05/15 21:27:51;;;;;;;0.50;0.50;;;;;;;;;;7400613;19;20228;-92
2023/05/15 21:30:18;;;;;;;0.52;0.52;;;;;;;;;;7395729;19;20141;-93
2023/05/15 21:32:45;;;;;;;0.40;0.40;;;;;;;;;;7399325;19;20137;-91
2023/05/15 21:35:12;;;;;;;0.40;0.40;;;;;;;;;;7396209;19;20549;-92
2023/05/15 21:37:38;;;;;;;0.30;0.30;;;;;;;;;;7398816;19;20197;-92
2023/05/15 21:40:06;;;;;;;0.30;0.30;;;;;;;;;;7397981;19;20161;-92
2023/05/15 21:42:32;;;;;;;0.35;0.35;;;;;;;;;;7403534;19;20137;-92
2023/05/15 21:44:59;;;;;;;0.47;0.47;;;;;;;;;;7413069;19;20137;-92
2023/05/15 21:47:28;;;;;;;0.40;0.40;;;;;;;;;;7396230;19;20171;-93
2023/05/15 21:49:58;;;;;;;0.40;0.40;;;;;;;;;;7395747;19;20616;-94
2023/05/15 21:52:25;;;;;;;0.73;0.60;;;;;;;;;;7398455;19;20145;-92
2023/05/15 21:54:52;;;;;;;0.60;0.60;;;;;;;;;;7400432;19;20128;-93
2023/05/15 21:57:18;;;;;;;0.40;0.40;;;;;;;;;;7403499;19;20160;-92
2023/05/15 21:59:45;;;;;;;0.40;0.40;;;;;;;;;;7397519;19;20264;-91
2023/05/15 22:02:12;;;;;;;0.37;0.37;;;;;;;;;;7398794;19;20136;-92
2023/05/15 22:04:39;;;;;;;0.60;0.60;;;;;;;;;;7399184;19;20141;-93
2023/05/15 22:07:16;;;;;;;1.03;0.80;;;;;;;;;;7394553;19;20552;-92
2023/05/15 22:09:43;;;;;;;0.30;0.30;;;;;;;;;;7397847;19;20141;-92
2023/05/15 22:12:10;;;;;;;0.40;0.40;;;;;;;;;;7399831;19;20141;-92
2023/05/15 22:14:37;;;;;;;0.40;0.40;;;;;;;;;;7399146;19;20129;-92
2023/05/15 22:17:17;;;;;;;0.63;0.63;;;;;;;;;;7398723;19;20175;-93
2023/05/15 22:19:49;;;;;;;1.37;0.53;;;;;;;;;;7400500;19;20593;-92
2023/05/15 22:22:15;;;;;;;0.53;0.53;;;;;;;;;;7397098;19;20136;-92
2023/05/15 22:24:42;;;;;;;0.37;0.37;;;;;;;;;;7397735;19;20177;-93
2023/05/15 22:27:09;;;;;;;0.67;0.67;;;;;;;;;;7397246;19;20237;-92
2023/05/15 22:29:36;;;;;;;0.30;0.30;;;;;;;;;;7394093;19;20141;-91
2023/05/15 22:32:03;;;;;;;0.70;0.70;;;;;;;;;;7398869;19;20137;-92
2023/05/15 22:34:30;;;;;;;0.43;0.43;;;;;;;;;;7394007;19;20133;-92
2023/05/15 22:36:58;;;;;;;0.40;0.40;;;;;;;;;;7413015;19;20141;-96
2023/05/15 22:39:25;;;;;;;0.40;0.40;;;;;;;;;;7422870;19;20133;-93
2023/05/15 22:41:51;;;;;;;0.40;0.40;;;;;;;;;;7421521;19;20544;-95
2023/05/15 22:44:18;;;;;;;0.30;0.30;;;;;;;;;;7419899;19;20184;-94
2023/05/15 22:46:45;;;;;;;0.93;0.87;;;;;;;;;;7414296;19;20675;-94
2023/05/15 22:49:24;;;;;;;0.30;0.30;;;;;;;;;;7413743;19;20168;-95
2023/05/15 22:51:52;;;;;;;0.47;0.47;;;;;;;;;;7420030;19;20140;-96
2023/05/15 22:54:20;;;;;;;0.70;0.70;;;;;;;;;;7417933;19;20125;-95
2023/05/15 22:56:52;;;;;;;0.83;0.83;;;;;;;;;;7417899;19;20161;-95
2023/05/15 22:59:19;;;;;;;0.77;0.77;;;;;;;;;;7417653;19;20148;-94
2023/05/15 23:01:46;;;;;;;0.30;0.30;;;;;;;;;;7405218;19;20173;-94
2023/05/15 23:04:13;;;;;;;1.43;0.90;;;;;;;;;;7415353;19;20149;-96
2023/05/15 23:06:40;;;;;;;0.37;0.37;;;;;;;;;;7420840;19;20140;-95
2023/05/15 23:09:07;;;;;;;0.70;0.70;;;;;;;;;;7411231;19;20137;-95
2023/05/15 23:11:34;;;;;;;0.67;0.67;;;;;;;;;;7406090;19;20141;-94
2023/05/15 23:14:01;;;;;;;0.40;0.40;;;;;;;;;;7405438;19;20617;-94
2023/05/15 23:16:28;;;;;;;0.30;0.30;;;;;;;;;;7404826;19;20141;-95
2023/05/15 23:18:56;;;;;;;0.70;0.70;;;;;;;;;;7402987;19;20230;-94
2023/05/15 23:21:23;;;;;;;0.30;0.30;;;;;;;;;;7404983;19;20141;-94
2023/05/15 23:23:53;;;;;;;0.40;0.40;;;;;;;;;;7408583;19;20181;-94
2023/05/15 23:26:20;;;;;;;0.47;0.43;;;;;;;;;;7412798;19;20141;-94
2023/05/15 23:28:47;;;;;;;0.50;0.50;;;;;;;;;;7411792;19;20228;-94
2023/05/15 23:31:20;;;;;;;0.50;0.50;;;;;;;;;;7420476;19;20137;-95
2023/05/15 23:34:00;;;;;;;0.40;0.40;;;;;;;;;;7418584;19;20148;-92
2023/05/15 23:36:27;;;;;;;0.80;0.80;;;;;;;;;;7414994;19;20145;-92
2023/05/15 23:38:54;;;;;;;2.23;1.20;;;;;;;;;;7411900;19;20153;-95
2023/05/15 23:41:27;;;;;;;0.40;0.40;;;;;;;;;;7408202;19;20168;-93
2023/05/15 23:43:53;;;;;;;0.40;0.40;;;;;;;;;;7412746;19;20156;-94
2023/05/15 23:46:20;;;;;;;0.50;0.50;;;;;;;;;;7415649;19;20217;-93
2023/05/15 23:48:47;;;;;;;0.50;0.50;;;;;;;;;;7410381;19;20626;-94
2023/05/15 23:51:13;;;;;;;0.40;0.40;;;;;;;;;;7414007;19;20133;-93
2023/05/15 23:53:40;;;;;;;0.40;0.40;;;;;;;;;;7410889;19;20145;-92
2023/05/15 23:56:10;;;;;;;0.40;0.40;;;;;;;;;;7412343;19;20149;-94
2023/05/15 23:58:37;;;;;;;0.80;0.80;;;;;;;;;;7416574;19;20173;-94
